createdAt,value
2022-09-17T00:00:20.622Z,15.28
2022-09-17T00:03:26.985Z,15.24
2022-09-17T00:06:34.098Z,15.21
2022-09-17T00:09:40.149Z,15.18
2022-09-17T00:12:45.986Z,15.11
2022-09-17T00:15:52.603Z,15.02
2022-09-17T00:18:59.670Z,14.94
2022-09-17T00:22:05.546Z,14.90
2022-09-17T00:25:12.211Z,14.90
2022-09-17T00:28:19.571Z,14.90
2022-09-17T00:31:26.341Z,14.87
2022-09-17T00:34:32.192Z,14.86
2022-09-17T00:37:38.094Z,14.84
2022-09-17T00:40:43.989Z,14.82
2022-09-17T00:43:52.141Z,14.82
2022-09-17T00:46:58.952Z,14.84
2022-09-17T00:50:09.210Z,14.83
2022-09-17T00:53:18.714Z,14.83
2022-09-17T00:56:28.095Z,14.81
2022-09-17T00:59:34.347Z,14.80
2022-09-17T01:02:39.086Z,14.77
2022-09-17T01:05:50.170Z,14.73
2022-09-17T01:09:14.870Z,14.74
2022-09-17T01:12:38.170Z,14.75
2022-09-17T01:15:50.369Z,14.75
2022-09-17T01:19:11.925Z,14.77
2022-09-17T01:22:25.563Z,14.78
2022-09-17T01:25:45.681Z,14.80
2022-09-17T01:28:58.515Z,14.80
2022-09-17T01:32:11.326Z,14.80
2022-09-17T01:35:23.165Z,14.81
2022-09-17T01:38:36.149Z,14.81
2022-09-17T01:41:47.745Z,14.81
2022-09-17T01:45:01.819Z,14.81
2022-09-17T01:48:12.874Z,14.82
2022-09-17T01:51:22.290Z,14.82
2022-09-17T01:54:32.605Z,14.81
2022-09-17T01:57:43.891Z,14.79
2022-09-17T02:00:53.500Z,14.78
2022-09-17T02:04:04.633Z,14.76
2022-09-17T02:07:16.333Z,14.73
2022-09-17T02:10:25.251Z,14.66
2022-09-17T02:13:37.564Z,14.61
2022-09-17T02:16:49.534Z,14.57
2022-09-17T02:19:56.861Z,14.55
2022-09-17T02:23:09.239Z,14.51
2022-09-17T02:26:19.614Z,14.51
2022-09-17T02:29:33.626Z,14.49
2022-09-17T02:32:39.717Z,14.43
2022-09-17T02:35:47.797Z,14.40
2022-09-17T02:39:03.119Z,14.43
2022-09-17T02:42:17.716Z,14.45
2022-09-17T02:45:37.471Z,14.46
2022-09-17T02:49:08.849Z,14.46
2022-09-17T02:52:27.059Z,14.43
2022-09-17T02:55:42.883Z,14.39
2022-09-17T02:58:54.686Z,14.34
2022-09-17T03:02:05.175Z,14.29
2022-09-17T03:05:12.024Z,14.25
2022-09-17T03:08:20.419Z,14.24
2022-09-17T03:11:26.925Z,14.23
2022-09-17T03:14:32.911Z,14.22
2022-09-17T03:17:39.095Z,14.22
2022-09-17T03:20:43.554Z,14.20
2022-09-17T03:23:50.691Z,14.17
2022-09-17T03:26:57.145Z,14.17
2022-09-17T03:30:03.033Z,14.15
2022-09-17T03:33:09.128Z,14.12
2022-09-17T03:36:15.275Z,14.10
2022-09-17T03:39:21.330Z,14.09
2022-09-17T03:42:27.525Z,14.06
2022-09-17T03:45:31.784Z,14.02
2022-09-17T03:48:39.867Z,13.93
2022-09-17T03:51:45.966Z,13.89
2022-09-17T03:54:52.092Z,13.89
2022-09-17T03:57:58.168Z,13.88
2022-09-17T04:01:04.833Z,13.88
2022-09-17T04:04:11.141Z,13.88
2022-09-17T04:07:17.278Z,13.87
2022-09-17T04:10:23.759Z,13.82
2022-09-17T04:13:29.955Z,13.76
2022-09-17T04:16:34.223Z,13.73
2022-09-17T04:19:40.198Z,13.68
2022-09-17T04:22:46.043Z,13.68
2022-09-17T04:25:51.986Z,13.67
2022-09-17T04:28:58.121Z,13.67
2022-09-17T04:32:04.694Z,13.67
2022-09-17T04:35:11.257Z,13.65
2022-09-17T04:38:18.748Z,13.62
2022-09-17T04:41:24.627Z,13.59
2022-09-17T04:44:30.517Z,13.56
2022-09-17T04:47:39.333Z,13.55
2022-09-17T04:50:45.203Z,13.54
2022-09-17T04:53:51.367Z,13.49
2022-09-17T04:56:57.486Z,13.43
2022-09-17T05:00:03.914Z,13.40
2022-09-17T05:03:10.229Z,13.37
2022-09-17T05:06:16.434Z,13.37
2022-09-17T05:09:20.938Z,13.42
2022-09-17T05:12:29.259Z,13.43
2022-09-17T05:15:38.671Z,13.46
2022-09-17T05:18:43.229Z,13.47
2022-09-17T05:21:49.090Z,13.46
2022-09-17T05:24:54.959Z,13.51
2022-09-17T05:28:02.302Z,13.57
2022-09-17T05:31:09.053Z,13.61
2022-09-17T05:34:15.355Z,13.66
2022-09-17T05:37:19.798Z,13.70
2022-09-17T05:40:24.084Z,13.73
2022-09-17T05:43:28.384Z,13.79
2022-09-17T05:46:32.650Z,13.84
2022-09-17T05:49:37.063Z,13.89
2022-09-17T05:52:41.539Z,13.95
2022-09-17T05:55:45.752Z,14.01
2022-09-17T05:58:50.022Z,14.10
2022-09-17T06:01:54.326Z,14.18
2022-09-17T06:05:00.934Z,14.27
2022-09-17T06:08:05.824Z,14.34
2022-09-17T06:11:10.901Z,14.44
2022-09-17T06:14:15.648Z,14.54
2022-09-17T06:17:22.183Z,14.63
2022-09-17T06:20:26.663Z,14.71
2022-09-17T06:23:35.377Z,14.80
2022-09-17T06:26:39.617Z,14.87
2022-09-17T06:29:43.810Z,14.93
2022-09-17T06:32:48.026Z,14.98
2022-09-17T06:35:57.341Z,15.06
2022-09-17T06:39:01.673Z,15.17
2022-09-17T06:42:06.426Z,15.30
2022-09-17T06:45:16.378Z,15.44
2022-09-17T06:48:21.098Z,15.59
2022-09-17T06:51:25.289Z,15.74
2022-09-17T06:54:29.518Z,15.89
2022-09-17T06:57:33.743Z,16.04
2022-09-17T07:00:37.977Z,16.20
2022-09-17T07:03:44.122Z,16.37
2022-09-17T07:06:48.341Z,16.53
2022-09-17T07:09:53.833Z,16.68
2022-09-17T07:12:58.118Z,16.81
2022-09-17T07:16:03.423Z,16.95
2022-09-17T07:19:09.012Z,17.08
2022-09-17T07:22:14.154Z,17.20
2022-09-17T07:25:18.366Z,17.34
2022-09-17T07:28:22.768Z,17.44
2022-09-17T07:31:27.061Z,17.53
2022-09-17T07:34:31.303Z,17.62
2022-09-17T07:37:35.558Z,17.71
2022-09-17T07:40:39.746Z,17.82
2022-09-17T07:43:44.354Z,17.93
2022-09-17T07:46:48.623Z,18.06
2022-09-17T07:49:52.861Z,18.16
2022-09-17T07:52:57.065Z,17.87
2022-09-17T07:56:01.818Z,17.39
2022-09-17T07:59:06.390Z,17.04
2022-09-17T08:02:13.052Z,16.80
2022-09-17T08:05:17.445Z,16.61
2022-09-17T08:08:21.656Z,16.46
2022-09-17T08:11:51.659Z,16.33
2022-09-17T08:14:51.424Z,16.23
2022-09-17T08:17:55.620Z,16.15
2022-09-17T08:21:00.509Z,16.06
2022-09-17T08:24:05.042Z,15.97
2022-09-17T08:27:09.239Z,15.92
2022-09-17T08:30:13.704Z,15.90
2022-09-17T08:33:18.230Z,15.90
2022-09-17T08:36:23.047Z,15.93
2022-09-17T08:39:27.380Z,15.97
2022-09-17T08:42:38.849Z,16.03
2022-09-17T08:45:43.421Z,16.10
2022-09-17T08:48:51.295Z,16.16
2022-09-17T08:52:03.363Z,16.20
2022-09-17T08:55:15.345Z,16.26
2022-09-17T08:58:36.725Z,16.33
2022-09-17T09:01:43.905Z,16.38
2022-09-17T09:05:03.641Z,16.40
2022-09-17T09:08:14.064Z,16.58
2022-09-17T09:11:20.132Z,17.15
2022-09-17T09:14:26.442Z,17.62
2022-09-17T09:17:33.725Z,17.90
2022-09-17T09:20:42.942Z,17.69
2022-09-17T09:23:53.651Z,17.38
2022-09-17T09:27:02.610Z,17.19
2022-09-17T09:30:08.802Z,17.08
2022-09-17T09:33:15.512Z,17.02
2022-09-17T09:36:22.149Z,16.99
2022-09-17T09:39:32.247Z,16.97
2022-09-17T09:42:40.381Z,16.94
2022-09-17T09:45:50.413Z,16.92
2022-09-17T09:49:01.453Z,16.90
2022-09-17T09:52:11.430Z,17.01
2022-09-17T09:55:26.851Z,17.03
2022-09-17T09:58:35.733Z,17.00
2022-09-17T10:01:41.785Z,17.02
2022-09-17T10:04:48.319Z,17.03
2022-09-17T10:07:55.790Z,17.35
2022-09-17T10:11:01.528Z,17.93
2022-09-17T10:14:17.480Z,18.03
2022-09-17T10:17:23.001Z,17.93
2022-09-17T10:20:27.290Z,17.89
2022-09-17T10:23:34.632Z,17.86
2022-09-17T10:26:39.338Z,17.90
2022-09-17T10:29:46.142Z,18.00
2022-09-17T10:33:11.438Z,18.11
2022-09-17T10:36:15.641Z,18.22
2022-09-17T10:39:36.827Z,18.28
2022-09-17T10:42:40.998Z,18.33
2022-09-17T10:45:46.774Z,18.36
2022-09-17T10:48:58.558Z,18.37
2022-09-17T10:52:11.730Z,18.33
2022-09-17T10:55:22.590Z,18.29
2022-09-17T10:58:34.185Z,18.23
2022-09-17T11:01:46.095Z,18.16
2022-09-17T11:04:55.683Z,18.09
2022-09-17T11:08:06.587Z,18.02
2022-09-17T11:11:11.909Z,17.93
2022-09-17T11:14:22.025Z,17.84
2022-09-17T11:17:46.949Z,17.77
2022-09-17T11:21:08.942Z,17.72
2022-09-17T11:24:30.886Z,17.70
2022-09-17T11:27:47.240Z,17.65
2022-09-17T11:30:56.008Z,17.62
2022-09-17T11:34:23.454Z,17.61
2022-09-17T11:37:30.138Z,17.61
2022-09-17T11:40:39.181Z,17.62
2022-09-17T11:43:46.373Z,17.56
2022-09-17T11:46:54.134Z,17.53
2022-09-17T11:50:01.877Z,17.52
2022-09-17T11:53:09.954Z,17.52
2022-09-17T11:56:17.035Z,17.55
2022-09-17T11:59:24.349Z,17.56
2022-09-17T12:02:37.786Z,17.57
2022-09-17T12:05:44.599Z,17.58
2022-09-17T12:08:55.091Z,17.57
2022-09-17T12:12:02.325Z,17.53
2022-09-17T12:15:08.706Z,17.50
2022-09-17T12:18:31.853Z,17.46
2022-09-17T12:21:39.257Z,17.42
2022-09-17T12:24:43.751Z,17.39
2022-09-17T12:27:54.295Z,17.33
2022-09-17T12:31:03.696Z,17.29
2022-09-17T12:34:19.314Z,17.27
2022-09-17T12:37:28.290Z,17.23
2022-09-17T12:40:33.772Z,17.21
2022-09-17T12:43:55.362Z,17.19
2022-09-17T12:47:09.733Z,17.19
2022-09-17T12:50:20.346Z,17.21
2022-09-17T12:53:29.891Z,17.24
2022-09-17T12:56:40.834Z,17.27
2022-09-17T12:59:49.274Z,17.30
2022-09-17T13:02:59.372Z,17.33
2022-09-17T13:06:16.952Z,17.31
2022-09-17T13:09:40.551Z,17.28
2022-09-17T13:12:47.607Z,17.30
2022-09-17T13:15:59.421Z,17.37
2022-09-17T13:19:15.972Z,17.45
2022-09-17T13:22:21.939Z,17.50
2022-09-17T13:25:27.282Z,17.51
2022-09-17T13:28:43.296Z,17.44
2022-09-17T13:31:51.153Z,17.33
2022-09-17T13:34:55.533Z,17.23
2022-09-17T13:38:00.330Z,17.11
2022-09-17T13:41:17.935Z,17.03
2022-09-17T13:44:24.166Z,16.97
2022-09-17T13:47:31.257Z,16.91
2022-09-17T13:50:36.891Z,16.87
2022-09-17T13:53:41.178Z,16.87
2022-09-17T13:56:47.254Z,16.87
2022-09-17T13:59:55.950Z,16.87
2022-09-17T14:03:20.139Z,16.86
2022-09-17T14:06:41.398Z,16.84
2022-09-17T14:09:55.781Z,16.85
2022-09-17T14:13:02.858Z,16.83
2022-09-17T14:16:24.781Z,16.79
2022-09-17T14:19:37.031Z,16.77
2022-09-17T14:22:41.631Z,16.77
2022-09-17T14:25:49.621Z,16.73
2022-09-17T14:28:57.286Z,16.67
2022-09-17T14:32:01.648Z,16.65
2022-09-17T14:35:19.937Z,16.57
2022-09-17T14:38:25.856Z,16.48
2022-09-17T14:41:35.664Z,16.37
2022-09-17T14:44:48.314Z,16.27
2022-09-17T14:48:12.610Z,16.43
2022-09-17T14:51:26.073Z,16.91
2022-09-17T14:54:35.834Z,17.24
2022-09-17T14:57:40.807Z,17.49
2022-09-17T15:00:52.023Z,17.37
2022-09-17T15:04:09.601Z,17.00
2022-09-17T15:07:14.960Z,16.70
2022-09-17T15:10:20.152Z,16.50
2022-09-17T15:13:27.354Z,16.31
2022-09-17T15:16:33.535Z,16.15
2022-09-17T15:19:39.049Z,16.04
2022-09-17T15:22:45.254Z,15.98
2022-09-17T15:25:50.649Z,15.93
2022-09-17T15:28:56.415Z,15.85
2022-09-17T15:32:01.533Z,15.72
2022-09-17T15:35:28.307Z,15.60
2022-09-17T15:38:33.655Z,15.50
2022-09-17T15:41:39.789Z,15.43
2022-09-17T15:44:45.060Z,15.38
2022-09-17T15:47:56.695Z,15.31
2022-09-17T15:51:02.053Z,15.23
2022-09-17T15:54:09.391Z,15.19
2022-09-17T15:57:17.682Z,15.12
2022-09-17T16:00:22.457Z,15.05
2022-09-17T16:03:44.552Z,15.00
2022-09-17T16:06:53.186Z,15.01
2022-09-17T16:09:59.503Z,15.43
2022-09-17T16:13:03.757Z,15.92
2022-09-17T16:16:12.579Z,16.26
2022-09-17T16:19:16.801Z,16.53
2022-09-17T16:22:21.184Z,16.73
2022-09-17T16:25:27.306Z,16.90
2022-09-17T16:28:32.046Z,17.05
2022-09-17T16:31:36.315Z,17.18
2022-09-17T16:34:40.529Z,17.29
2022-09-17T16:37:44.805Z,17.30
2022-09-17T16:40:49.968Z,16.87
2022-09-17T16:43:54.210Z,16.44
2022-09-17T16:46:58.601Z,16.11
2022-09-17T16:50:02.886Z,15.84
2022-09-17T16:53:07.076Z,15.62
2022-09-17T16:56:11.860Z,15.41
2022-09-17T16:59:16.340Z,15.22
2022-09-17T17:02:20.537Z,15.05
2022-09-17T17:05:25.210Z,14.89
2022-09-17T17:08:29.428Z,14.74
2022-09-17T17:11:33.848Z,14.76
2022-09-17T17:14:38.174Z,15.18
2022-09-17T17:17:42.402Z,15.55
2022-09-17T17:20:47.689Z,15.80
2022-09-17T17:23:52.524Z,15.99
2022-09-17T17:26:56.922Z,16.14
2022-09-17T17:30:04.624Z,16.25
2022-09-17T17:33:08.846Z,16.35
2022-09-17T17:36:14.226Z,16.44
2022-09-17T17:39:18.530Z,16.52
2022-09-17T17:42:22.738Z,16.59
2022-09-17T17:45:26.945Z,16.65
2022-09-17T17:48:31.173Z,16.70
2022-09-17T17:51:35.635Z,16.74
2022-09-17T17:54:39.871Z,16.78
2022-09-17T17:57:44.137Z,16.80
2022-09-17T18:00:48.373Z,16.81
2022-09-17T18:03:56.728Z,16.81
2022-09-17T18:07:00.918Z,16.81
2022-09-17T18:10:05.498Z,16.81
2022-09-17T18:13:09.916Z,16.81
2022-09-17T18:16:15.575Z,16.80
2022-09-17T18:19:19.917Z,16.78
2022-09-17T18:22:24.142Z,16.77
2022-09-17T18:25:28.909Z,16.77
2022-09-17T18:28:34.961Z,16.77
2022-09-17T18:31:39.434Z,16.76
2022-09-17T18:34:43.901Z,16.76
2022-09-17T18:37:48.103Z,16.77
2022-09-17T18:40:52.751Z,16.77
2022-09-17T18:43:56.950Z,16.76
2022-09-17T18:47:01.237Z,16.76
2022-09-17T18:50:05.754Z,16.76
2022-09-17T18:53:10.139Z,16.75
2022-09-17T18:56:16.366Z,16.75
2022-09-17T18:59:20.861Z,16.72
2022-09-17T19:02:25.411Z,16.70
2022-09-17T19:05:30.614Z,16.70
2022-09-17T19:08:35.129Z,16.71
2022-09-17T19:11:39.350Z,16.71
2022-09-17T19:14:43.594Z,16.72
2022-09-17T19:17:47.766Z,16.74
2022-09-17T19:20:51.982Z,16.74
2022-09-17T19:23:56.530Z,16.75
2022-09-17T19:27:01.767Z,16.75
2022-09-17T19:30:07.001Z,16.75
2022-09-17T19:33:11.298Z,16.74
2022-09-17T19:36:16.573Z,16.72
2022-09-17T19:39:20.766Z,16.70
2022-09-17T19:42:25.912Z,16.69
2022-09-17T19:45:31.134Z,16.67
2022-09-17T19:48:36.695Z,16.64
2022-09-17T19:51:42.219Z,16.62
2022-09-17T19:54:46.412Z,16.61
2022-09-17T19:57:50.607Z,16.58
2022-09-17T20:00:57.446Z,16.57
2022-09-17T20:04:02.056Z,16.56
2022-09-17T20:07:06.385Z,16.53
2022-09-17T20:10:10.982Z,16.54
2022-09-17T20:13:15.438Z,16.55
2022-09-17T20:16:21.018Z,16.53
2022-09-17T20:19:25.623Z,16.51
2022-09-17T20:22:30.507Z,16.50
2022-09-17T20:25:35.083Z,16.49
2022-09-17T20:28:39.305Z,16.49
2022-09-17T20:31:43.624Z,16.46
2022-09-17T20:34:50.046Z,16.46
2022-09-17T20:39:00.003Z,16.47
2022-09-17T20:41:19.142Z,16.48
2022-09-17T20:44:23.602Z,16.49
2022-09-17T20:47:28.026Z,16.50
2022-09-17T20:50:32.552Z,16.50
2022-09-17T20:53:37.534Z,16.50
2022-09-17T20:56:42.329Z,16.50
2022-09-17T20:59:53.112Z,16.51
2022-09-17T21:02:57.674Z,16.49
2022-09-17T21:06:02.001Z,16.46
2022-09-17T21:09:07.369Z,16.43
2022-09-17T21:12:11.889Z,16.40
2022-09-17T21:15:16.185Z,16.37
2022-09-17T21:18:20.386Z,16.35
2022-09-17T21:21:24.675Z,16.33
2022-09-17T21:24:28.878Z,16.32
2022-09-17T21:27:33.630Z,16.29
2022-09-17T21:30:38.094Z,16.27
2022-09-17T21:33:43.187Z,16.25
2022-09-17T21:36:48.387Z,16.24
2022-09-17T21:39:52.607Z,16.21
2022-09-17T21:42:57.089Z,16.18
2022-09-17T21:46:02.256Z,16.18
2022-09-17T21:49:06.561Z,16.15
2022-09-17T21:52:10.930Z,16.14
2022-09-17T21:55:15.419Z,16.13
2022-09-17T21:58:19.619Z,16.13
2022-09-17T22:01:25.293Z,16.13
2022-09-17T22:04:29.541Z,16.10
2022-09-17T22:07:33.968Z,16.07
2022-09-17T22:10:38.205Z,16.02
2022-09-17T22:13:42.795Z,15.99
2022-09-17T22:16:47.994Z,15.97
2022-09-17T22:19:52.402Z,15.96
2022-09-17T22:22:56.828Z,15.95
2022-09-17T22:26:05.513Z,15.94
2022-09-17T22:29:10.650Z,15.94
2022-09-17T22:32:15.205Z,15.94
2022-09-17T22:35:19.413Z,15.91
2022-09-17T22:38:23.598Z,15.90
2022-09-17T22:41:28.660Z,15.90
2022-09-17T22:44:32.839Z,15.89
2022-09-17T22:47:37.203Z,15.87
2022-09-17T22:50:41.689Z,15.86
2022-09-17T22:53:46.298Z,15.86
2022-09-17T22:56:50.780Z,15.85
2022-09-17T22:59:55.218Z,15.83
2022-09-17T23:02:59.477Z,15.82
2022-09-17T23:06:04.921Z,15.82
2022-09-17T23:09:09.305Z,15.79
2022-09-17T23:12:13.738Z,15.77
2022-09-17T23:15:18.633Z,15.76
2022-09-17T23:18:23.126Z,15.76
2022-09-17T23:21:27.566Z,15.76
2022-09-17T23:24:34.421Z,15.73
2022-09-17T23:27:38.853Z,15.70
2022-09-17T23:30:43.547Z,15.64
2022-09-17T23:33:48.778Z,15.59
2022-09-17T23:36:53.512Z,15.57
2022-09-17T23:39:57.982Z,15.56
2022-09-17T23:43:02.270Z,15.54
2022-09-17T23:46:07.000Z,15.49
2022-09-17T23:49:13.224Z,15.45
2022-09-17T23:52:17.557Z,15.44
2022-09-17T23:55:21.753Z,15.45
2022-09-17T23:58:26.154Z,15.44
